Weather reports worldwide

Advertisment
Großer Arber, Germany (10791): temperature & dewpoint: 11.10.2018 06:00:00 - 17.10.2018 06:00:00 (CEST)Großer Arber, Germany (10791): wind speed & gusts: 11.10.2018 06:00:00 - 17.10.2018 06:00:00 (CEST)Großer Arber, Germany (10791): wind direction: 11.10.2018 06:00:00 - 17.10.2018 06:00:00 (CEST)Großer Arber, Germany (10791): visibility: 11.10.2018 06:00:00 - 17.10.2018 06:00:00 (CEST)Großer Arber, Germany (10791): sunshine duration: 11.10.2018 06:00:00 - 17.10.2018 06:00:00 (CEST)Großer Arber, Germany (10791): precipitation: 11.10.2018 06:00:00 - 17.10.2018 06:00:00 (CEST)
Date & Time tt [°C] td [°C] ff [km/h] ff [kn] fx [km/h] fx [kn] dd vv [km] sd [min] rr [mm]
17.10.2018 06:00:00 8,5 4,5 8 4 9 5 WNW 24 0 0,0
17.10.2018 05:00:00 8,3 5,3 5 3 9 5 W 18 0 0,0
17.10.2018 04:00:00 8,6 5,2 5 3 9 5 WSW 24 0 0,0
17.10.2018 03:00:00 9,2 5,0 6 4 11 6 S 31 0 0,0
17.10.2018 02:00:00 9,3 5,0 9 5 14 8 SSW 36 0 0,0
17.10.2018 01:00:00 9,0 5,4 12 6 14 8 S 33 0 0,0
17.10.2018 00:00:00 9,0 5,4 8 5 11 6 SSE 27 0 0,0
16.10.2018 23:00:00 9,6 5,1 5 3 7 4 SSW 28 0 0,0
16.10.2018 22:00:00 9,4 5,7 3 2 7 4 E 27 0 0,0
16.10.2018 21:00:00 9,0 5,5 4 2 9 5 N 28 0 0,0
16.10.2018 20:00:00 9,2 5,6 3 2 8 5 NNW 27 0 0,0
16.10.2018 19:00:00 9,9 6,0 4 2 7 4 NW 27 0 0,0
16.10.2018 18:00:00 10,6 5,8 3 1 13 7 NW 28 37 0,0
16.10.2018 17:00:00 12,5 6,0 8 4 16 8 WSW 29 60 0,0
16.10.2018 16:00:00 13,4 5,8 7 4 18 10 WSW 46 60 0,0
16.10.2018 15:00:00 14,2 5,7 5 3 22 12 NNW 40 60 0,0
16.10.2018 14:00:00 13,4 4,3 6 3 21 12 SW 38 60 0,0
16.10.2018 13:00:00 13,0 4,1 7 4 13 7 NNW 65 60 0,0
16.10.2018 12:00:00 13,6 3,7 2 1 8 4 N 62 60 0,0
16.10.2018 11:00:00 14,0 4,7 4 2 8 4 NNW 54 60 0,0
16.10.2018 10:00:00 11,9 3,2 4 2 8 4 W 56 60 0,0
16.10.2018 09:00:00 11,5 3,2 5 3 7 4 E 54 53 0,0
16.10.2018 08:00:00 9,5 2,6 3 2 5 3 NNE 54 0 0,0
16.10.2018 07:00:00 10,0 2,9 3 2 13 7 NE 62 0 0,0
16.10.2018 06:00:00 8,7 1,8 6 3 12 6 S 48 0 0,0
16.10.2018 05:00:00 9,9 1,9 4 2 10 5 SSE 51 0 0,0
16.10.2018 04:00:00 9,4 2,3 8 5 10 5 S 50 0 0,0
16.10.2018 03:00:00 10,8 2,6 7 4 14 7 SW 62 0 0,0
16.10.2018 02:00:00 10,6 3,1 13 7 23 12 SSW 56 0 0,0
16.10.2018 01:00:00 10,3 3,2 18 10 24 13 S 59 0 0,0
16.10.2018 00:00:00 10,3 3,4 20 11 27 14 S 60 0 0,0
15.10.2018 23:00:00 9,5 3,6 19 11 34 18 SSE 52 0 0,0
15.10.2018 22:00:00 10,3 3,8 26 14 42 23 SSE 43 0 0,0
15.10.2018 21:00:00 10,3 3,8 29 16 44 24 SSE 53 0 0,0
15.10.2018 20:00:00 10,6 4,1 32 17 41 22 SSE 47 0 0,0
15.10.2018 19:00:00 10,9 4,0 25 14 36 19 SE 45 17 0,0
15.10.2018 18:00:00 11,5 3,3 23 12 37 20 SSE 47 24 0,0
15.10.2018 17:00:00 11,9 2,0 23 12 35 19 SSE 62 17 0,0
15.10.2018 16:00:00 12,3 2,5 19 11 29 16 SE 70 25 0,0
15.10.2018 15:00:00 11,9 2,0 18 10 25 13 SE 75 0 0,0
15.10.2018 14:00:00 11,7 2,2 15 8 23 13 SE 54 6 0,0
15.10.2018 13:00:00 12,0 2,2 16 9 22 12 SSE 43 0 0,0
15.10.2018 12:00:00 11,8 2,8 13 7 25 14 SSE 51 5 0,0
15.10.2018 11:00:00 12,1 1,7 15 8 24 13 S 52 45 0,0
15.10.2018 10:00:00 11,1 1,6 17 9 25 13 SSE 50 54 0,0
15.10.2018 09:00:00 12,1 1,2 21 11 37 20 S 65 42 0,0
15.10.2018 08:00:00 10,6 1,1 31 17 46 25 S 64 0 0,0
15.10.2018 07:00:00 10,0 1,3 34 18 42 23 S 62 0 0,0
15.10.2018 06:00:00 9,7 1,4 30 16 41 22 SSE 59 0 0,0
15.10.2018 05:00:00 10,2 1,4 29 16 44 24 SSE 56 0 0,0
15.10.2018 04:00:00 9,9 1,4 28 15 50 27 S 58 0 0,0
15.10.2018 03:00:00 9,8 1,4 36 19 50 27 SSE 53 0 0,0
15.10.2018 02:00:00 10,6 1,4 36 19 58 31 SSE 64 0 0,0
15.10.2018 01:00:00 10,6 1,4 41 22 58 31 SSE 70 0 0,0
15.10.2018 00:00:00 11,1 1,4 43 23 63 34 SSE 71 0 0,0
14.10.2018 23:00:00 11,3 1,7 44 24 62 34 SSE 74 0 0,0
14.10.2018 22:00:00 11,3 1,9 46 25 64 34 SSE 63 0 0,0
14.10.2018 21:00:00 11,3 2,3 45 25 64 35 SSE 63 0 0,0
14.10.2018 20:00:00 11,8 2,5 42 23 58 32 SSE 61 0 0,0
14.10.2018 19:00:00 12,2 2,8 39 21 58 31 SSE 51 23 0,0
14.10.2018 18:00:00 12,8 3,2 32 17 42 23 SE 61 60 0,0
14.10.2018 17:00:00 14,1 2,0 27 14 45 24 SSE 67 60 0,0
14.10.2018 16:00:00 15,0 2,1 26 14 37 20 SSE 56 60 0,0
14.10.2018 15:00:00 15,3 2,6 23 12 36 19 SSE 38 60 0,0
14.10.2018 14:00:00 15,4 1,8 22 12 33 18 SSE 58 60 0,0
14.10.2018 13:00:00 14,9 2,5 21 12 32 18 SE 50 60 0,0
14.10.2018 12:00:00 14,2 1,9 15 8 34 18 SSE 63 60 0,0
14.10.2018 11:00:00 14,9 1,6 19 11 37 20 SSE 75 60 0,0
14.10.2018 10:00:00 12,8 0,1 31 17 43 23 SSE 75 60 0,0
14.10.2018 09:00:00 11,5 0,6 26 14 39 21 S 61 60 0,0
14.10.2018 08:00:00 9,8 0,6 29 15 46 25 SSE 64 3 0,0
14.10.2018 07:00:00 10,3 0,3 37 20 49 26 SSE 73 0 0,0
14.10.2018 06:00:00 10,9 -0,8 37 20 47 25 SSE 69 0 0,0
14.10.2018 05:00:00 10,7 -0,5 32 18 44 24 SSE 67 0 0,0
14.10.2018 04:00:00 11,1 0,2 29 15 47 25 S 54 0 0,0
14.10.2018 03:00:00 11,6 0,5 36 20 49 26 SSE 58 0 0,0
14.10.2018 02:00:00 11,9 0,8 38 20 50 27 SSE 58 0 0,0
14.10.2018 01:00:00 10,7 1,8 28 15 40 22 SSE 47 0 0,0
14.10.2018 00:00:00 10,7 2,2 29 16 41 22 SSE 47 0 0,0
13.10.2018 23:00:00 11,0 2,7 32 18 48 26 SSE 43 0 0,0
13.10.2018 22:00:00 11,0 3,2 37 20 49 26 SSE 44 0 0,0
13.10.2018 21:00:00 11,0 3,5 36 19 44 24 SE 41 0 0,0
13.10.2018 20:00:00 10,6 5,0 32 17 42 23 SE 37 0 0,0
13.10.2018 19:00:00 11,0 5,2 26 14 34 18 ESE 38 28 0,0
13.10.2018 18:00:00 13,2 4,1 16 8 26 14 SE 47 60 0,0
13.10.2018 17:00:00 15,0 4,5 10 5 29 16 SE 47 60 0,0
13.10.2018 16:00:00 16,5 -2,0 21 11 28 15 SSE 55 60 0,0
13.10.2018 15:00:00 16,7 2,0 16 8 23 13 SSE 59 60 0,0
13.10.2018 14:00:00 15,9 3,5 9 5 21 11 E 58 60 0,0
13.10.2018 13:00:00 15,1 3,4 10 5 22 12 E 75 60 0,0
13.10.2018 12:00:00 15,1 3,8 10 5 23 12 ENE 60 60 0,0
13.10.2018 11:00:00 16,4 4,7 11 6 23 13 ESE 70 60 0,0
13.10.2018 10:00:00 14,5 3,8 14 8 21 11 ESE 75 60 0,0
13.10.2018 09:00:00 13,9 2,4 12 6 17 9 ESE 75 60 0,0
13.10.2018 08:00:00 12,4 2,6 13 7 15 8 E 75 6 0,0
13.10.2018 07:00:00 12,6 0,9 12 7 15 8 E 75 0 0,0
13.10.2018 06:00:00 12,5 1,2 11 6 16 9 ESE 75 0 0,0
13.10.2018 05:00:00 12,5 0,5 11 6 16 9 ESE 75 0 0,0
13.10.2018 04:00:00 12,3 1,3 11 6 19 11 E 75 0 0,0
13.10.2018 03:00:00 12,7 4,7 14 8 19 10 E 61 0 0,0
13.10.2018 02:00:00 13,6 3,0 14 8 18 10 E 75 0 0,0
13.10.2018 01:00:00 12,6 5,4 11 6 14 8 E 74 0 0,0
13.10.2018 00:00:00 13,0 6,0 8 4 9 5 E 48 0 0,0
12.10.2018 23:00:00 13,3 6,1 4 2 6 4 E 68 0 0,0
12.10.2018 22:00:00 13,3 5,3 6 3 13 7 SE 67 0 0,0
12.10.2018 21:00:00 12,8 4,2 11 6 18 10 SE 72 0 0,0
12.10.2018 20:00:00 13,1 5,2 18 10 21 11 ESE 57 0 0,0
12.10.2018 19:00:00 12,8 6,5 16 9 19 10 ESE 60 27 0,0
12.10.2018 18:00:00 14,4 6,1 6 3 9 5 E 63 60 0,0
12.10.2018 17:00:00 16,0 5,5 4 2 12 6 E 75 60 0,0
12.10.2018 16:00:00 17,0 6,9 6 3 14 8 WNW 52 60 0,0
12.10.2018 15:00:00 16,5 4,4 5 3 10 6 NE 61 60 0,0
12.10.2018 14:00:00 16,1 4,1 8 4 14 7 ENE 62 60 0,0
12.10.2018 13:00:00 15,6 3,7 7 4 14 8 E 75 60 0,0
12.10.2018 12:00:00 15,1 3,5 7 4 13 7 E 75 35 0,0
12.10.2018 11:00:00 15,6 3,8 6 3 10 5 ENE 64 60 0,0
12.10.2018 10:00:00 14,3 4,5 6 4 12 7 NE 61 26 0,0
12.10.2018 09:00:00 12,7 4,0 6 3 17 9 N 75 4 0,0
12.10.2018 08:00:00 11,8 3,8 13 7 24 13 N 65 2 0,0
12.10.2018 07:00:00 12,1 3,2 19 10 26 14 WNW 75 0 0,0
12.10.2018 06:00:00 12,7 3,5 18 10 37 20 W 75 0 0,0
12.10.2018 05:00:00 11,2 3,0 24 13 32 18 WSW 68 0 0,0
12.10.2018 04:00:00 11,9 3,0 20 11 29 15 SSW 74 0 0,0
12.10.2018 03:00:00 11,6 2,9 21 11 30 16 SSW 65 0 0,0
12.10.2018 02:00:00 12,2 2,8 23 12 29 16 S 65 0 0,0
12.10.2018 01:00:00 12,0 2,6 23 13 31 17 S 64 0 0,0
12.10.2018 00:00:00 11,7 2,2 23 13 36 19 S 61 0 0,0
11.10.2018 23:00:00 11,4 1,5 32 17 42 23 SSE 69 0 0,0
11.10.2018 22:00:00 11,6 0,6 35 19 48 26 SSE 63 0 0,0
11.10.2018 21:00:00 11,7 -0,5 37 20 49 26 SSE 60 0 0,0
11.10.2018 20:00:00 12,2 -1,0 34 18 41 22 SSE 66 0 0,0
11.10.2018 19:00:00 12,4 -0,9 30 16 41 22 SE 60 23 0,0
11.10.2018 18:00:00 13,4 -1,9 23 12 29 16 SE 65 60 0,0
11.10.2018 17:00:00 14,8 -2,3 18 10 35 19 SSE 75 60 0,0
11.10.2018 16:00:00 15,8 -1,8 18 10 32 17 SSE 67 60 0,0
11.10.2018 15:00:00 16,0 -1,4 22 12 34 18 SSE 37 60 0,0
11.10.2018 14:00:00 15,8 -3,3 27 14 40 22 SSE 75 60 0,0
11.10.2018 13:00:00 16,0 -2,5 25 13 50 27 SSE 2,3 60 0,0
11.10.2018 12:00:00 14,9 -5,0 25 14 46 25 SSE 75 60 0,0
11.10.2018 11:00:00 15,1 -4,7 23 13 57 31 SSE 58 60 0,0
11.10.2018 10:00:00 12,7 -6,7 39 21 60 33 SSE 58 60 0,0
11.10.2018 09:00:00 11,0 -6,2 44 24 63 34 SSE 75 60 0,0
11.10.2018 08:00:00 10,7 -6,6 46 25 66 36 SSE 75 8 0,0
11.10.2018 07:00:00 11,3 -6,9 50 27 67 36 SSE 75 0 0,0
11.10.2018 06:00:00 11,5 -6,5 46 25 63 34 SSE 73 0 0,0

tt = temperature
td = dewpoint
ff = wind speed
fx = gusts
dd = wind direction
vv = visibility
sd = sunshine duration
rr = precipitation

Next stations